sensor_id;sensor_type;location;lat;lon;timestamp;pressure;altitude;pressure_sealevel;temperature;humidity
18697;BME280;22617;43.690;27.956;2023-03-13T00:01:36;99259.25;;;1.32;68.68
18697;BME280;22617;43.690;27.956;2023-03-13T00:06:41;99255.53;;;1.24;68.61
18697;BME280;22617;43.690;27.956;2023-03-13T00:11:45;99259.13;;;1.29;68.76
18697;BME280;22617;43.690;27.956;2023-03-13T00:16:48;99263.22;;;1.24;68.23
18697;BME280;22617;43.690;27.956;2023-03-13T00:21:53;99269.75;;;1.16;67.80
18697;BME280;22617;43.690;27.956;2023-03-13T00:26:56;99262.41;;;1.03;67.33
18697;BME280;22617;43.690;27.956;2023-03-13T00:32:05;99264.41;;;1.10;67.72
18697;BME280;22617;43.690;27.956;2023-03-13T00:37:10;99265.88;;;1.03;67.66
18697;BME280;22617;43.690;27.956;2023-03-13T00:42:14;99257.75;;;0.93;68.18
18697;BME280;22617;43.690;27.956;2023-03-13T00:47:17;99267.56;;;1.03;67.88
18697;BME280;22617;43.690;27.956;2023-03-13T00:52:22;99259.16;;;1.07;67.56
18697;BME280;22617;43.690;27.956;2023-03-13T00:57:29;99265.44;;;0.93;67.08
18697;BME280;22617;43.690;27.956;2023-03-13T01:02:32;99265.44;;;0.93;66.83
18697;BME280;22617;43.690;27.956;2023-03-13T01:07:38;99269.00;;;0.96;66.79
18697;BME280;22617;43.690;27.956;2023-03-13T01:12:41;99267.88;;;0.67;66.96
18697;BME280;22617;43.690;27.956;2023-03-13T01:17:45;99274.75;;;0.68;66.86
18697;BME280;22617;43.690;27.956;2023-03-13T01:22:50;99284.56;;;0.56;67.86
18697;BME280;22617;43.690;27.956;2023-03-13T01:27:53;99278.63;;;0.57;67.65
18697;BME280;22617;43.690;27.956;2023-03-13T01:32:57;99280.16;;;0.54;68.13
18697;BME280;22617;43.690;27.956;2023-03-13T01:38:02;99279.28;;;0.53;67.29
18697;BME280;22617;43.690;27.956;2023-03-13T01:43:15;99297.69;;;0.43;67.41
18697;BME280;22617;43.690;27.956;2023-03-13T01:48:36;99297.19;;;0.31;68.40
18697;BME280;22617;43.690;27.956;2023-03-13T01:53:47;99305.69;;;0.30;68.47
18697;BME280;22617;43.690;27.956;2023-03-13T01:58:52;99310.81;;;0.09;68.15
18697;BME280;22617;43.690;27.956;2023-03-13T02:03:58;99319.16;;;0.05;68.26
18697;BME280;22617;43.690;27.956;2023-03-13T02:09:06;99323.94;;;0.17;68.50
18697;BME280;22617;43.690;27.956;2023-03-13T02:14:11;99345.88;;;-0.28;67.73
18697;BME280;22617;43.690;27.956;2023-03-13T02:19:19;99348.03;;;-0.37;70.14
18697;BME280;22617;43.690;27.956;2023-03-13T02:24:33;99352.28;;;-0.38;69.49
18697;BME280;22617;43.690;27.956;2023-03-13T02:29:41;99359.31;;;-0.34;70.03
18697;BME280;22617;43.690;27.956;2023-03-13T02:34:47;99364.47;;;-0.52;68.96
18697;BME280;22617;43.690;27.956;2023-03-13T02:39:54;99365.63;;;-0.07;69.91
18697;BME280;22617;43.690;27.956;2023-03-13T02:45:00;99364.84;;;-0.25;68.25
18697;BME280;22617;43.690;27.956;2023-03-13T02:50:04;99364.97;;;-0.22;67.94
18697;BME280;22617;43.690;27.956;2023-03-13T02:55:10;99375.09;;;-0.25;68.27
18697;BME280;22617;43.690;27.956;2023-03-13T03:00:17;99378.72;;;-0.20;67.91
18697;BME280;22617;43.690;27.956;2023-03-13T03:05:21;99383.22;;;-0.14;67.57
18697;BME280;22617;43.690;27.956;2023-03-13T03:10:25;99390.25;;;-0.29;67.49
18697;BME280;22617;43.690;27.956;2023-03-13T03:15:30;99393.03;;;-0.43;66.19
18697;BME280;22617;43.690;27.956;2023-03-13T03:20:34;99403.16;;;-0.46;67.84
18697;BME280;22617;43.690;27.956;2023-03-13T03:25:38;99404.13;;;-0.24;67.49
18697;BME280;22617;43.690;27.956;2023-03-13T03:30:43;99407.41;;;-0.46;67.29
18697;BME280;22617;43.690;27.956;2023-03-13T03:35:47;99425.34;;;-0.81;69.16
18697;BME280;22617;43.690;27.956;2023-03-13T03:40:51;99424.91;;;-0.91;70.72
18697;BME280;22617;43.690;27.956;2023-03-13T03:45:56;99431.63;;;-0.75;70.27
18697;BME280;22617;43.690;27.956;2023-03-13T03:51:00;99442.97;;;-0.88;70.23
18697;BME280;22617;43.690;27.956;2023-03-13T03:56:06;99448.16;;;-1.04;70.37
18697;BME280;22617;43.690;27.956;2023-03-13T04:01:16;99451.53;;;-0.87;70.60
18697;BME280;22617;43.690;27.956;2023-03-13T04:06:20;99457.22;;;-0.93;69.64
18697;BME280;22617;43.690;27.956;2023-03-13T04:11:24;99471.13;;;-0.88;69.34
18697;BME280;22617;43.690;27.956;2023-03-13T04:16:31;99474.81;;;-0.99;68.86
18697;BME280;22617;43.690;27.956;2023-03-13T04:21:35;99482.81;;;-0.75;68.41
18697;BME280;22617;43.690;27.956;2023-03-13T04:26:52;99496.53;;;-0.91;68.51
18697;BME280;22617;43.690;27.956;2023-03-13T04:31:57;99486.69;;;-0.83;68.46
18697;BME280;22617;43.690;27.956;2023-03-13T04:37:18;99494.63;;;-0.95;68.77
18697;BME280;22617;43.690;27.956;2023-03-13T04:42:46;99498.28;;;-1.07;68.55
18697;BME280;22617;43.690;27.956;2023-03-13T04:48:21;99501.66;;;-0.91;68.54
18697;BME280;22617;43.690;27.956;2023-03-13T04:53:47;99507.72;;;-0.89;68.66
18697;BME280;22617;43.690;27.956;2023-03-13T04:59:23;99520.09;;;-0.80;69.33
18697;BME280;22617;43.690;27.956;2023-03-13T05:04:53;99528.88;;;-0.57;69.92
18697;BME280;22617;43.690;27.956;2023-03-13T05:10:04;99541.47;;;-0.44;69.85
18697;BME280;22617;43.690;27.956;2023-03-13T05:15:09;99538.16;;;-0.24;69.88
18697;BME280;22617;43.690;27.956;2023-03-13T05:20:28;99535.66;;;0.15;69.95
18697;BME280;22617;43.690;27.956;2023-03-13T05:25:42;99548.50;;;0.34;70.52
18697;BME280;22617;43.690;27.956;2023-03-13T05:31:06;99552.63;;;0.69;71.46
18697;BME280;22617;43.690;27.956;2023-03-13T05:36:34;99562.94;;;1.09;71.80
18697;BME280;22617;43.690;27.956;2023-03-13T05:42:05;99550.69;;;1.43;71.37
18697;BME280;22617;43.690;27.956;2023-03-13T05:47:24;99556.56;;;1.84;71.50
18697;BME280;22617;43.690;27.956;2023-03-13T05:52:55;99559.63;;;2.18;74.37
18697;BME280;22617;43.690;27.956;2023-03-13T05:58:25;99550.03;;;2.60;72.13
18697;BME280;22617;43.690;27.956;2023-03-13T06:03:42;99568.16;;;3.11;73.70
18697;BME280;22617;43.690;27.956;2023-03-13T06:08:50;99567.25;;;3.61;74.09
18697;BME280;22617;43.690;27.956;2023-03-13T06:13:55;99569.91;;;4.17;73.54
18697;BME280;22617;43.690;27.956;2023-03-13T06:19:17;99569.56;;;4.93;69.55
18697;BME280;22617;43.690;27.956;2023-03-13T06:24:22;99573.06;;;5.61;63.07
18697;BME280;22617;43.690;27.956;2023-03-13T06:29:26;99575.31;;;6.18;59.76
18697;BME280;22617;43.690;27.956;2023-03-13T06:34:29;99570.78;;;6.48;56.12
18697;BME280;22617;43.690;27.956;2023-03-13T06:39:34;99569.59;;;6.71;54.20
18697;BME280;22617;43.690;27.956;2023-03-13T06:44:38;99569.28;;;7.01;53.58
18697;BME280;22617;43.690;27.956;2023-03-13T06:49:42;99579.88;;;7.12;49.89
18697;BME280;22617;43.690;27.956;2023-03-13T06:54:47;99575.09;;;7.34;49.89
18697;BME280;22617;43.690;27.956;2023-03-13T06:59:50;99572.38;;;7.78;52.60
18697;BME280;22617;43.690;27.956;2023-03-13T07:04:54;99579.88;;;8.14;50.69
18697;BME280;22617;43.690;27.956;2023-03-13T07:09:59;99574.19;;;8.36;49.62
18697;BME280;22617;43.690;27.956;2023-03-13T07:15:04;99578.25;;;8.81;47.73
18697;BME280;22617;43.690;27.956;2023-03-13T07:20:10;99568.84;;;8.92;46.41
18697;BME280;22617;43.690;27.956;2023-03-13T07:25:15;99564.84;;;9.23;46.47
18697;BME280;22617;43.690;27.956;2023-03-13T07:30:19;99566.09;;;9.64;44.87
18697;BME280;22617;43.690;27.956;2023-03-13T07:35:22;99566.09;;;9.61;46.20
18697;BME280;22617;43.690;27.956;2023-03-13T07:40:27;99566.34;;;9.93;44.96
18697;BME280;22617;43.690;27.956;2023-03-13T07:45:30;99558.03;;;10.47;43.85
18697;BME280;22617;43.690;27.956;2023-03-13T07:50:34;99553.84;;;10.76;43.92
18697;BME280;22617;43.690;27.956;2023-03-13T07:55:39;99555.56;;;10.74;43.08
18697;BME280;22617;43.690;27.956;2023-03-13T08:00:43;99560.97;;;11.21;44.72
18697;BME280;22617;43.690;27.956;2023-03-13T08:05:46;99561.00;;;11.40;43.62
18697;BME280;22617;43.690;27.956;2023-03-13T08:10:51;99547.97;;;11.76;41.90
18697;BME280;22617;43.690;27.956;2023-03-13T08:16:03;99551.44;;;11.52;41.69
18697;BME280;22617;43.690;27.956;2023-03-13T08:21:07;99553.22;;;11.96;41.44
18697;BME280;22617;43.690;27.956;2023-03-13T08:26:14;99548.78;;;12.40;39.87
18697;BME280;22617;43.690;27.956;2023-03-13T08:31:19;99538.13;;;12.93;41.41
18697;BME280;22617;43.690;27.956;2023-03-13T08:36:24;99543.59;;;12.22;39.21
18697;BME280;22617;43.690;27.956;2023-03-13T08:41:32;99543.38;;;12.93;40.77
18697;BME280;22617;43.690;27.956;2023-03-13T08:46:37;99544.22;;;12.94;40.14
18697;BME280;22617;43.690;27.956;2023-03-13T08:51:41;99542.47;;;12.99;40.05
18697;BME280;22617;43.690;27.956;2023-03-13T08:56:46;99543.91;;;13.48;38.77
18697;BME280;22617;43.690;27.956;2023-03-13T09:01:49;99548.28;;;13.48;38.36
18697;BME280;22617;43.690;27.956;2023-03-13T09:06:52;99549.88;;;13.70;39.47
18697;BME280;22617;43.690;27.956;2023-03-13T09:11:57;99543.84;;;14.55;40.04
18697;BME280;22617;43.690;27.956;2023-03-13T09:17:01;99548.44;;;14.38;42.03
18697;BME280;22617;43.690;27.956;2023-03-13T09:22:05;99559.53;;;14.58;39.37
18697;BME280;22617;43.690;27.956;2023-03-13T09:27:10;99550.03;;;14.50;37.76
18697;BME280;22617;43.690;27.956;2023-03-13T09:32:14;99548.50;;;14.29;37.27
18697;BME280;22617;43.690;27.956;2023-03-13T09:37:18;99538.56;;;14.60;37.12
18697;BME280;22617;43.690;27.956;2023-03-13T09:42:28;99534.63;;;14.96;36.22
18697;BME280;22617;43.690;27.956;2023-03-13T09:47:41;99538.72;;;15.76;40.55
18697;BME280;22617;43.690;27.956;2023-03-13T09:52:47;99534.16;;;15.29;39.02
18697;BME280;22617;43.690;27.956;2023-03-13T09:57:55;99536.13;;;15.13;36.04
18697;BME280;22617;43.690;27.956;2023-03-13T10:03:06;99523.13;;;15.06;36.61
18697;BME280;22617;43.690;27.956;2023-03-13T10:08:17;99506.31;;;15.74;39.41
18697;BME280;22617;43.690;27.956;2023-03-13T10:13:28;99502.81;;;15.74;37.36
18697;BME280;22617;43.690;27.956;2023-03-13T10:18:46;99505.63;;;16.12;37.51
18697;BME280;22617;43.690;27.956;2023-03-13T10:23:53;99500.28;;;16.64;38.16
18697;BME280;22617;43.690;27.956;2023-03-13T10:29:10;99501.28;;;16.57;38.14
18697;BME280;22617;43.690;27.956;2023-03-13T10:34:19;99502.44;;;16.42;36.87
18697;BME280;22617;43.690;27.956;2023-03-13T10:39:23;99507.53;;;16.94;36.44
18697;BME280;22617;43.690;27.956;2023-03-13T10:44:32;99488.22;;;16.51;34.94
18697;BME280;22617;43.690;27.956;2023-03-13T10:49:46;99486.91;;;16.30;36.40
18697;BME280;22617;43.690;27.956;2023-03-13T10:54:55;99493.66;;;16.43;34.70
18697;BME280;22617;43.690;27.956;2023-03-13T11:00:22;99483.53;;;17.08;36.55
18697;BME280;22617;43.690;27.956;2023-03-13T11:05:32;99456.31;;;17.08;37.17
18697;BME280;22617;43.690;27.956;2023-03-13T11:10:50;99457.81;;;17.19;34.35
18697;BME280;22617;43.690;27.956;2023-03-13T11:16:00;99456.72;;;15.54;37.16
18697;BME280;22617;43.690;27.956;2023-03-13T11:21:05;99447.06;;;15.55;38.33
18697;BME280;22617;43.690;27.956;2023-03-13T11:26:23;99440.97;;;17.26;36.00
18697;BME280;22617;43.690;27.956;2023-03-13T11:31:34;99436.34;;;16.57;36.65
18697;BME280;22617;43.690;27.956;2023-03-13T11:36:44;99422.28;;;17.35;36.12
18697;BME280;22617;43.690;27.956;2023-03-13T11:41:57;99418.00;;;16.54;35.40
18697;BME280;22617;43.690;27.956;2023-03-13T11:47:14;99418.50;;;17.10;36.04
18697;BME280;22617;43.690;27.956;2023-03-13T11:52:39;99411.63;;;16.65;36.78
18697;BME280;22617;43.690;27.956;2023-03-13T11:57:52;99408.13;;;16.66;36.22
18697;BME280;22617;43.690;27.956;2023-03-13T12:03:02;99414.44;;;16.55;37.88
18697;BME280;22617;43.690;27.956;2023-03-13T12:08:11;99395.91;;;15.25;37.56
18697;BME280;22617;43.690;27.956;2023-03-13T12:13:21;99405.00;;;15.56;36.57
18697;BME280;22617;43.690;27.956;2023-03-13T12:18:31;99397.50;;;16.27;37.67
18697;BME280;22617;43.690;27.956;2023-03-13T12:23:44;99393.31;;;16.19;36.73
18697;BME280;22617;43.690;27.956;2023-03-13T12:28:56;99393.47;;;16.52;37.70
18697;BME280;22617;43.690;27.956;2023-03-13T12:34:13;99393.38;;;16.16;36.41
18697;BME280;22617;43.690;27.956;2023-03-13T12:39:29;99394.94;;;15.81;36.60
18697;BME280;22617;43.690;27.956;2023-03-13T12:44:35;99398.84;;;15.05;37.75
18697;BME280;22617;43.690;27.956;2023-03-13T12:49:59;99396.34;;;13.57;39.13
18697;BME280;22617;43.690;27.956;2023-03-13T12:55:26;99394.97;;;13.12;39.08
18697;BME280;22617;43.690;27.956;2023-03-13T13:00:35;99400.53;;;12.65;39.55
18697;BME280;22617;43.690;27.956;2023-03-13T13:05:57;99388.88;;;14.00;39.10
18697;BME280;22617;43.690;27.956;2023-03-13T13:17:01;99387.47;;;15.05;39.15
18697;BME280;22617;43.690;27.956;2023-03-13T13:22:45;99397.56;;;14.74;38.90
18697;BME280;22617;43.690;27.956;2023-03-13T13:27:50;99393.97;;;14.11;41.99
18697;BME280;22617;43.690;27.956;2023-03-13T13:32:55;99394.56;;;13.61;41.87
18697;BME280;22617;43.690;27.956;2023-03-13T13:38:31;99393.78;;;13.49;41.80
18697;BME280;22617;43.690;27.956;2023-03-13T13:43:44;99380.31;;;13.84;40.56
18697;BME280;22617;43.690;27.956;2023-03-13T13:49:10;99390.66;;;13.02;42.91
18697;BME280;22617;43.690;27.956;2023-03-13T13:54:53;99385.50;;;12.91;43.03
18697;BME280;22617;43.690;27.956;2023-03-13T14:00:00;99386.63;;;12.54;44.23
18697;BME280;22617;43.690;27.956;2023-03-13T14:05:15;99390.00;;;12.71;44.12
18697;BME280;22617;43.690;27.956;2023-03-13T14:10:35;99390.94;;;12.62;44.24
18697;BME280;22617;43.690;27.956;2023-03-13T14:15:42;99397.16;;;12.42;44.89
18697;BME280;22617;43.690;27.956;2023-03-13T16:01:32;99401.47;;;8.76;50.61
18697;BME280;22617;43.690;27.956;2023-03-13T16:06:36;99404.75;;;8.58;51.17
18697;BME280;22617;43.690;27.956;2023-03-13T16:11:40;99394.22;;;8.46;51.75
18697;BME280;22617;43.690;27.956;2023-03-13T16:16:45;99399.13;;;8.22;51.75
18697;BME280;22617;43.690;27.956;2023-03-13T16:21:51;99405.72;;;7.96;52.63
18697;BME280;22617;43.690;27.956;2023-03-13T16:26:55;99413.94;;;7.64;54.38
18697;BME280;22617;43.690;27.956;2023-03-13T16:32:01;99419.69;;;7.45;55.90
18697;BME280;22617;43.690;27.956;2023-03-13T16:37:10;99435.56;;;7.09;56.85
18697;BME280;22617;43.690;27.956;2023-03-13T16:42:15;99433.66;;;7.00;57.35
18697;BME280;22617;43.690;27.956;2023-03-13T16:47:22;99437.72;;;6.85;57.84
18697;BME280;22617;43.690;27.956;2023-03-13T16:52:29;99437.38;;;6.67;58.44
18697;BME280;22617;43.690;27.956;2023-03-13T16:57:34;99438.38;;;6.73;58.49
18697;BME280;22617;43.690;27.956;2023-03-13T17:02:40;99440.56;;;6.52;58.47
18697;BME280;22617;43.690;27.956;2023-03-13T17:07:46;99448.59;;;6.22;59.33
18697;BME280;22617;43.690;27.956;2023-03-13T17:12:50;99448.81;;;5.92;60.78
18697;BME280;22617;43.690;27.956;2023-03-13T17:17:57;99461.56;;;5.85;60.75
18697;BME280;22617;43.690;27.956;2023-03-13T17:23:02;99461.22;;;5.69;61.55
18697;BME280;22617;43.690;27.956;2023-03-13T17:28:09;99468.41;;;5.45;62.08
18697;BME280;22617;43.690;27.956;2023-03-13T17:33:17;99475.41;;;5.49;61.68
18697;BME280;22617;43.690;27.956;2023-03-13T17:38:26;99471.72;;;5.40;62.00
18697;BME280;22617;43.690;27.956;2023-03-13T17:44:17;99482.72;;;5.31;62.35
18697;BME280;22617;43.690;27.956;2023-03-13T17:49:47;99475.28;;;5.10;62.83
18697;BME280;22617;43.690;27.956;2023-03-13T18:02:43;99482.63;;;4.94;63.42
18697;BME280;22617;43.690;27.956;2023-03-13T18:46:32;99487.16;;;4.71;64.10
18697;BME280;22617;43.690;27.956;2023-03-13T18:58:54;99480.06;;;4.62;64.68
18697;BME280;22617;43.690;27.956;2023-03-13T19:03:59;99483.34;;;4.57;63.67
18697;BME280;22617;43.690;27.956;2023-03-13T19:09:08;99474.41;;;4.44;64.30
18697;BME280;22617;43.690;27.956;2023-03-13T19:14:34;99468.75;;;4.27;65.02
18697;BME280;22617;43.690;27.956;2023-03-13T19:19:38;99461.69;;;4.20;65.05
18697;BME280;22617;43.690;27.956;2023-03-13T19:24:42;99465.44;;;4.31;65.71
18697;BME280;22617;43.690;27.956;2023-03-13T19:29:46;99466.66;;;4.44;64.75
18697;BME280;22617;43.690;27.956;2023-03-13T19:34:50;99463.25;;;4.47;64.37
18697;BME280;22617;43.690;27.956;2023-03-13T19:39:54;99459.91;;;4.49;64.09
18697;BME280;22617;43.690;27.956;2023-03-13T19:44:58;99473.69;;;4.50;64.06
18697;BME280;22617;43.690;27.956;2023-03-13T19:50:03;99468.81;;;4.29;64.25
18697;BME280;22617;43.690;27.956;2023-03-13T19:55:08;99466.72;;;4.16;64.61
18697;BME280;22617;43.690;27.956;2023-03-13T20:00:18;99460.97;;;3.96;65.67
18697;BME280;22617;43.690;27.956;2023-03-13T20:05:24;99458.44;;;3.98;65.49
18697;BME280;22617;43.690;27.956;2023-03-13T20:10:28;99454.13;;;3.98;66.11
18697;BME280;22617;43.690;27.956;2023-03-13T20:15:31;99450.13;;;3.78;66.04
18697;BME280;22617;43.690;27.956;2023-03-13T20:20:36;99450.25;;;3.54;66.94
18697;BME280;22617;43.690;27.956;2023-03-13T20:25:40;99448.91;;;3.67;66.86
18697;BME280;22617;43.690;27.956;2023-03-13T20:30:43;99444.16;;;3.80;65.79
18697;BME280;22617;43.690;27.956;2023-03-13T20:35:55;99444.69;;;3.99;65.27
18697;BME280;22617;43.690;27.956;2023-03-13T20:40:59;99435.59;;;3.81;64.86
18697;BME280;22617;43.690;27.956;2023-03-13T20:46:04;99440.94;;;3.31;65.68
18697;BME280;22617;43.690;27.956;2023-03-13T20:51:09;99430.56;;;3.29;65.64
18697;BME280;22617;43.690;27.956;2023-03-13T20:56:12;99433.28;;;3.07;66.50
18697;BME280;22617;43.690;27.956;2023-03-13T21:01:16;99423.59;;;3.25;67.09
18697;BME280;22617;43.690;27.956;2023-03-13T21:06:22;99409.38;;;3.38;66.63
18697;BME280;22617;43.690;27.956;2023-03-13T21:11:26;99405.44;;;3.49;65.73
18697;BME280;22617;43.690;27.956;2023-03-13T21:16:29;99403.31;;;3.09;65.54
18697;BME280;22617;43.690;27.956;2023-03-13T21:21:34;99405.22;;;2.62;67.50
18697;BME280;22617;43.690;27.956;2023-03-13T21:26:37;99405.06;;;2.58;66.78
18697;BME280;22617;43.690;27.956;2023-03-13T21:31:41;99414.72;;;2.65;67.28
18697;BME280;22617;43.690;27.956;2023-03-13T21:36:46;99415.84;;;2.48;67.30
18697;BME280;22617;43.690;27.956;2023-03-13T21:41:49;99410.97;;;2.81;67.02
18697;BME280;22617;43.690;27.956;2023-03-13T21:46:53;99405.25;;;2.39;66.62
18697;BME280;22617;43.690;27.956;2023-03-13T21:51:58;99404.22;;;2.10;67.91
18697;BME280;22617;43.690;27.956;2023-03-13T21:57:02;99405.03;;;2.33;67.60
18697;BME280;22617;43.690;27.956;2023-03-13T22:02:05;99399.63;;;2.50;66.71
18697;BME280;22617;43.690;27.956;2023-03-13T22:07:11;99406.88;;;2.37;67.03
18697;BME280;22617;43.690;27.956;2023-03-13T22:12:14;99402.84;;;1.96;66.35
18697;BME280;22617;43.690;27.956;2023-03-13T22:17:19;99398.97;;;2.07;67.14
18697;BME280;22617;43.690;27.956;2023-03-13T22:22:24;99388.16;;;2.15;66.49
18697;BME280;22617;43.690;27.956;2023-03-13T22:27:28;99392.03;;;2.04;67.85
18697;BME280;22617;43.690;27.956;2023-03-13T22:32:31;99380.50;;;2.42;66.10
18697;BME280;22617;43.690;27.956;2023-03-13T22:37:36;99381.00;;;2.32;64.89
18697;BME280;22617;43.690;27.956;2023-03-13T22:42:40;99378.91;;;2.21;65.97
18697;BME280;22617;43.690;27.956;2023-03-13T22:47:43;99376.94;;;1.90;65.53
18697;BME280;22617;43.690;27.956;2023-03-13T22:52:48;99383.69;;;2.11;66.90
18697;BME280;22617;43.690;27.956;2023-03-13T22:57:51;99370.16;;;1.92;67.16
18697;BME280;22617;43.690;27.956;2023-03-13T23:02:55;99362.06;;;2.05;68.18
18697;BME280;22617;43.690;27.956;2023-03-13T23:08:00;99354.56;;;2.11;68.44
18697;BME280;22617;43.690;27.956;2023-03-13T23:13:04;99353.66;;;2.34;68.61
18697;BME280;22617;43.690;27.956;2023-03-13T23:18:07;99344.59;;;2.45;68.92
18697;BME280;22617;43.690;27.956;2023-03-13T23:23:13;99339.44;;;2.45;68.21
18697;BME280;22617;43.690;27.956;2023-03-13T23:28:16;99326.59;;;2.45;68.71
18697;BME280;22617;43.690;27.956;2023-03-13T23:33:20;99322.72;;;2.58;68.59
18697;BME280;22617;43.690;27.956;2023-03-13T23:38:25;99318.31;;;2.54;68.11
18697;BME280;22617;43.690;27.956;2023-03-13T23:43:28;99317.44;;;2.28;69.29
18697;BME280;22617;43.690;27.956;2023-03-13T23:48:32;99302.97;;;2.06;69.82
18697;BME280;22617;43.690;27.956;2023-03-13T23:53:37;99301.69;;;1.94;71.31
18697;BME280;22617;43.690;27.956;2023-03-13T23:58:42;99290.59;;;1.95;71.39
